AirNav   Everest Fuels
 
 692 users online  

2N6 Redwing Airport
Jobstown, New Jersey, USA

GOING TO JOBSTOWN?


FAA INFORMATION EFFECTIVE 17 JUNE 2021

Location

FAA Identifier: 2N6
Lat/Long: 40-01-37.5000N 074-41-27.2000W
40-01.625000N 074-41.453333W
40.0270833,-74.6908889
(estimated)
Elevation: 78 ft. / 24 m (estimated)
Variation: 12W (1985)
From city: 1 mile S of JOBSTOWN, NJ
Time zone: UTC -4 (UTC -5 during Standard Time)
Zip code: 08041

Airport Operations

Airport use: Open to the public
Activation date: 03/1960
Control tower: no
ARTCC: NEW YORK CENTER
FSS: MILLVILLE FLIGHT SERVICE STATION
NOTAMs facility: MIV (NOTAM-D service available)
Attendance: IREG
Wind indicator: yes
Segmented circle: no

Airport Communications

CTAF: 122.9
WX ASOS at VAY (9 nm SW): 119.325 (609-267-1176)
WX ASOS at PNE (15 nm W): 121.15 (215-677-0146)
WX ASOS at TTN (16 nm N): 126.775 (609-538-8690)
WX AWOS-3PT at MJX (19 nm E): 119.875 (732-797-2542)

Nearby radio navigation aids

VOR radial/distance  VOR name  Freq  Var
GXUr296/4.5MC GUIRE VORTAC110.6012W
RBVr231/13.8ROBBINSVILLE VORTAC113.8010W
ARDr154/16.8YARDLEY VOR/DME108.2010W
CYNr327/17.3COYLE VORTAC113.4010W
COLr246/29.7COLTS NECK VOR/DME115.4011W
VCNr033/32.0CEDAR LAKE VOR/DME115.2010W
SBJr186/33.4SOLBERG VOR/DME112.9010W
ACYr001/34.7ATLANTIC CITY VORTAC108.6010W
OODr060/36.7WOODSTOWN VORTAC112.8010W

 
NDB name  Hdg/Dist  Freq  Var  ID
LAKEHURST277/16.439611WNEL -. . .-..
AMBLER114/27.927512WING .. -. --.

Airport Services

Parking: tiedowns
Airframe service: MINOR
Powerplant service: MINOR
Bottled oxygen: NONE
Bulk oxygen: NONE

Runway Information

Runway 6/24

Dimensions: 1830 x 50 ft. / 558 x 15 m
Surface: turf, in good condition
RUNWAY 6  RUNWAY 24
Traffic pattern: leftleft
Obstructions: 56 ft. trees, 725 ft. from runway, 155 ft. left of centerline, 12:1 slope to clear
RY 06 FIRST HALF, TREES WITHIN 90 FT OF CTLN.
15 ft. road
RWY 24 ADDTNL OBSTRS, +35 TO +62 FT TREES, DIST 320-400 FT, 80-120 FT L.

Runway 11/29

Dimensions: 1590 x 70 ft. / 485 x 21 m
Surface: turf, in good condition
Runway edge lights: non-standard
RUNWAY 11  RUNWAY 29
Latitude: 40-01.645168N40-01.606395N
Longitude: 074-41.622142W074-41.285158W
Elevation: 73.0 ft.78.0 ft.
Traffic pattern: rightleft
Runway heading: 111 magnetic, 099 true291 magnetic, 279 true
Obstructions: 38 ft. trees, 10 ft. from runway, 100 ft. left of centerline63 ft. tree, 1500 ft. from runway, 23:1 slope to clear

Airport Ownership and Management from official FAA records

Ownership: Privately-owned
Owner: CENTRAL JERSEY R.W. INC
PO BOX 186
CROSSWICKS, NJ 08515
Phone 609-298-6645
Manager: GEORGE P. DENGLER
PO BOX 186
CROSSWICKS, NJ 08515
Phone 609-298-6645

Airport Operational Statistics

Aircraft based on the field: 5
Single engine airplanes: 4
Helicopters: 1
    
Aircraft operations: avg 56/week *
80% local general aviation
20% transient general aviation
* for 12-month period ending 02 May 2019

Additional Remarks

NIGHT LANDINGS PROHIBITED DUE TO PERMANENT REDUCTION IN LENGTH OF RWY 11/29.
NSTD LIGHTING RY 11/29 OTS INDEFLY.
FOR CD CTC MC GUIRE APCH AT 609-754-2767.
DEER & BIRDS ON & INVOF ARPT.

Instrument Procedures

There are no published instrument procedures at 2N6.

Some nearby airports with instrument procedures:

KWRI - McGuire Field (Joint Base Mc Guire Dix Lakehurst) Airport (5 nm E)
N14 - Flying W Airport (8 nm SW)
KVAY - South Jersey Regional Airport (9 nm SW)
N87 - Trenton-Robbinsville Airport (12 nm N)
KPNE - Northeast Philadelphia Airport (15 nm W)
KNEL - Lakehurst Maxfield Field Airport (16 nm E)
KTTN - Trenton Mercer Airport (16 nm N)
19N - Camden County Airport (19 nm SW)
KMJX - Ocean County Airport (19 nm E)
 
Loc | Ops | Rwys | IFR | FBO | Links
Com | Nav | Svcs | Stats | Notes
Area around 2N6 (Redwing Airport)
 
Road maps at: MapQuest Bing Google
 
Aerial photo
WARNING: Photo may not be current or correct
Aerial photo of 2N6 (Redwing Airport)
Looking north.

Do you have a better or more recent aerial photo of Redwing Airport that you would like to share? If so, please send us your photo.

 
Sectional chart

 
Airport distance calculator
Flying to Redwing Airport? Find the distance to fly.

From to 2N6

Sunrise and sunset
Times for 21-Jun-2021
 Local
(UTC-4)
 Zulu
(UTC)
Morning civil twilight04:5808:58
Sunrise05:3109:31
Sunset20:3000:30
Evening civil twilight21:0301:03

Current date and time
Zulu (UTC)  21-Jun-2021 11:30:43
Local (UTC-4)  21-Jun-2021 07:30:43
 
METAR
KWRI 
5nm E 
211111Z 20004KT 10SM SCT007 BKN011 23/23 A2976 RMK AO2A BKN V SCT CIG 010 RWY06 CIG 006 RWY18 SLP076
KVAY 
9nm SW 
ASOS 119.325 609-267-1176
211054Z AUTO 00000KT 10SM OVC010 23/22 A2976 RMK AO2 SLP078 T02330217 $
KPNE 
15nm W 
211121Z VRB04KT 10SM OVC014 24/22 A2977 RMK AO2 T02390217
KTTN 
16nm N 
ASOS 133.70 609-538-8690
211107Z 18004KT 10SM BKN008 OVC014 23/22 A2976 RMK AO2 T02330222
KNEL 
16nm E 
211106Z 21005KT 9SM OVC005 A2976 RMK AO2 CIG 004V009 SLPNO PNO $
KMJX 
19nm E 
AWOS-3 119.875 732-244-4450
210056Z AUTO 18006KT 10SM CLR 25/21 A2981 RMK AO2 SLP096 T02500206 TSNO
TAF
KWRI 
5nm E 
211000Z 2110/2216 VRB06KT 3200 BR BKN004 QNH2976INS BECMG 2112/2113 22010G15KT 9999 NSW SCT012 BKN020 QNH2972INS BECMG 2115/2116 22012G20KT 9999 SCT020 BKN200 QNH2961INS BECMG 2122/2123 18010KT 9999 SCT020 QNH2963INS BECMG 2202/2203 24010G15KT 6000 -RA VCTS SCT010CB BKN050 QNH2964INS BECMG 2204/2205 26009KT 9000 -SHRA BKN010 OVC020 QNH2964INS BECMG 2209/2211 27010KT 9999 NSW SCT010 OVC030 QNH2970INS TX32/2120Z TN21/2210Z
KPNE 
15nm W 
210804Z 2108/2206 21006KT P6SM BKN015 BKN250 FM211000 19005KT P6SM BKN010 FM211400 20010KT P6SM SCT035 FM212300 20007KT P6SM VCTS SCT035CB BKN070 FM220400 23006KT P6SM -SHRA BKN050
KTTN 
16nm N 
210801Z 2108/2206 19004KT P6SM BKN015 BKN250 FM211000 VRB04KT 6SM BR BKN010 FM211400 20009KT P6SM SCT035 FM212300 21006KT P6SM VCTS SCT035CB BKN070 FM220300 22005KT P6SM -SHRA BKN050
NOTAMs
Click for the latest NOTAMs
NOTAMs are issued by the DoD/FAA and will open in a separate window not controlled by AirNav.

 

 
 

Would you like to see your business listed on this page?

 If your business provides an interesting product or service to pilots, flight crews, aircraft, or users of the Redwing Airport, you should consider listing it here.  To start the listing process, click on the button below
 
Add a business
 

Other Pages about Redwing Airport

Update a link
 
Copyright © AirNav, LLC. All rights reserved. Privacy Policy  Contact